createdAt,value
2022-09-02T00:01:22.339Z,19.49
2022-09-02T00:03:51.418Z,19.47
2022-09-02T00:06:20.346Z,19.47
2022-09-02T00:08:48.677Z,19.47
2022-09-02T00:11:19.999Z,19.48
2022-09-02T00:13:50.944Z,19.46
2022-09-02T00:16:19.842Z,19.47
2022-09-02T00:18:49.030Z,19.46
2022-09-02T00:21:17.527Z,19.46
2022-09-02T00:23:46.675Z,19.46
2022-09-02T00:26:15.863Z,19.45
2022-09-02T00:28:51.097Z,19.45
2022-09-02T00:31:27.504Z,19.45
2022-09-02T00:33:56.453Z,19.44
2022-09-02T00:36:25.001Z,19.45
2022-09-02T00:38:54.314Z,19.45
2022-09-02T00:41:25.492Z,19.45
2022-09-02T00:43:55.954Z,19.44
2022-09-02T00:46:27.982Z,19.45
2022-09-02T00:49:03.526Z,19.45
2022-09-02T00:51:43.169Z,19.44
2022-09-02T00:54:14.017Z,19.45
2022-09-02T00:56:45.074Z,19.46
2022-09-02T00:59:20.413Z,19.45
2022-09-02T01:01:50.298Z,19.45
2022-09-02T01:04:19.002Z,19.44
2022-09-02T01:06:47.529Z,19.45
2022-09-02T01:09:17.345Z,19.45
2022-09-02T01:11:47.923Z,19.45
2022-09-02T01:14:17.543Z,19.45
2022-09-02T01:16:49.609Z,19.46
2022-09-02T01:19:23.806Z,19.47
2022-09-02T01:21:54.817Z,19.45
2022-09-02T01:24:29.714Z,19.46
2022-09-02T01:27:00.398Z,19.46
2022-09-02T01:29:30.174Z,19.46
2022-09-02T01:31:58.688Z,19.47
2022-09-02T01:34:27.389Z,19.46
2022-09-02T01:36:57.138Z,19.48
2022-09-02T01:39:25.828Z,19.47
2022-09-02T01:41:54.314Z,19.47
2022-09-02T01:44:24.206Z,19.47
2022-09-02T01:46:52.664Z,19.48
2022-09-02T01:49:21.742Z,19.47
2022-09-02T01:51:51.051Z,19.47
2022-09-02T01:54:20.838Z,19.45
2022-09-02T01:56:49.468Z,19.46
2022-09-02T01:59:18.114Z,19.46
2022-09-02T02:01:47.169Z,19.46
2022-09-02T02:04:17.030Z,19.46
2022-09-02T02:06:48.857Z,19.46
2022-09-02T02:09:24.859Z,19.45
2022-09-02T02:11:56.085Z,19.44
2022-09-02T02:14:25.237Z,19.42
2022-09-02T02:16:54.601Z,19.42
2022-09-02T02:22:53.114Z,19.40
2022-09-02T02:25:22.914Z,19.37
2022-09-02T02:27:54.548Z,19.37
2022-09-02T02:30:25.199Z,19.36
2022-09-02T02:32:53.721Z,19.34
2022-09-02T02:35:23.364Z,19.32
2022-09-02T02:37:52.371Z,19.30
2022-09-02T02:40:25.106Z,19.28
2022-09-02T02:42:54.859Z,19.27
2022-09-02T02:45:25.278Z,19.25
2022-09-02T02:47:55.226Z,19.23
2022-09-02T02:50:25.502Z,19.22
2022-09-02T02:52:54.836Z,19.20
2022-09-02T02:55:26.207Z,19.18
2022-09-02T02:57:55.124Z,19.18
2022-09-02T03:00:25.948Z,19.17
2022-09-02T03:02:57.024Z,19.16
2022-09-02T03:05:26.545Z,19.14
2022-09-02T03:07:55.600Z,19.15
2022-09-02T03:10:26.714Z,19.14
2022-09-02T03:12:55.625Z,19.12
2022-09-02T03:15:24.404Z,19.10
2022-09-02T03:17:56.299Z,19.09
2022-09-02T03:20:25.514Z,19.08
2022-09-02T03:23:00.132Z,19.06
2022-09-02T03:25:35.824Z,19.04
2022-09-02T03:28:12.098Z,19.02
2022-09-02T03:30:42.311Z,18.99
2022-09-02T03:33:11.510Z,18.96
2022-09-02T03:35:42.078Z,18.96
2022-09-02T03:38:11.075Z,18.93
2022-09-02T03:40:41.970Z,18.93
2022-09-02T03:43:10.350Z,18.92
2022-09-02T03:45:41.688Z,18.92
2022-09-02T03:48:14.183Z,18.90
2022-09-02T03:50:47.095Z,18.89
2022-09-02T03:53:20.128Z,18.86
2022-09-02T03:55:51.907Z,18.84
2022-09-02T03:58:23.576Z,18.81
2022-09-02T04:00:55.294Z,18.78
2022-09-02T04:03:25.729Z,18.77
2022-09-02T04:05:54.565Z,18.74
2022-09-02T04:08:25.822Z,18.73
2022-09-02T04:10:57.254Z,18.73
2022-09-02T04:13:27.118Z,18.73
2022-09-02T04:15:58.614Z,18.71
2022-09-02T04:18:31.186Z,18.71
2022-09-02T04:21:01.409Z,18.72
2022-09-02T04:23:30.055Z,18.71
2022-09-02T04:26:00.674Z,18.70
2022-09-02T04:28:29.002Z,18.73
2022-09-02T04:30:58.740Z,18.72
2022-09-02T04:33:27.642Z,18.72
2022-09-02T04:35:56.001Z,18.71
2022-09-02T04:38:24.647Z,18.70
2022-09-02T04:40:53.341Z,18.69
2022-09-02T04:43:23.258Z,18.67
2022-09-02T04:45:53.016Z,18.66
2022-09-02T04:48:21.967Z,18.65
2022-09-02T04:50:50.752Z,18.65
2022-09-02T04:53:20.591Z,18.63
2022-09-02T04:55:48.963Z,18.62
2022-09-02T04:58:17.394Z,18.62
2022-09-02T05:00:50.795Z,18.61
2022-09-02T05:03:20.141Z,18.62
2022-09-02T05:05:49.197Z,18.62
2022-09-02T05:08:19.733Z,18.61
2022-09-02T05:10:50.014Z,18.60
2022-09-02T05:13:18.944Z,18.60
2022-09-02T05:15:48.300Z,18.59
2022-09-02T05:18:18.832Z,18.59
2022-09-02T05:20:47.953Z,18.57
2022-09-02T05:23:17.883Z,18.56
2022-09-02T05:25:48.223Z,18.56
2022-09-02T05:28:17.845Z,18.54
2022-09-02T05:30:46.314Z,18.56
2022-09-02T05:33:17.870Z,18.56
2022-09-02T05:35:49.976Z,18.56
2022-09-02T05:38:19.270Z,18.57
2022-09-02T05:40:49.260Z,18.59
2022-09-02T05:43:18.447Z,18.58
2022-09-02T05:45:48.859Z,18.61
2022-09-02T05:48:37.048Z,18.63
2022-09-02T05:51:07.523Z,18.65
2022-09-02T05:53:36.581Z,18.68
2022-09-02T05:56:06.169Z,18.72
2022-09-02T05:58:35.742Z,18.76
2022-09-02T06:01:09.443Z,18.79
2022-09-02T06:03:39.737Z,18.82
2022-09-02T06:06:09.557Z,18.85
2022-09-02T06:08:42.751Z,18.89
2022-09-02T06:11:13.216Z,18.92
2022-09-02T06:13:43.675Z,18.95
2022-09-02T06:16:16.069Z,18.99
2022-09-02T06:18:47.293Z,19.03
2022-09-02T06:21:17.314Z,19.07
2022-09-02T06:23:49.798Z,19.08
2022-09-02T06:26:19.500Z,19.10
2022-09-02T06:28:48.626Z,19.13
2022-09-02T06:31:21.159Z,19.15
2022-09-02T06:33:54.881Z,19.17
2022-09-02T06:36:28.288Z,19.18
2022-09-02T06:38:59.075Z,19.21
2022-09-02T06:41:31.381Z,19.23
2022-09-02T06:44:07.103Z,19.25
2022-09-02T06:46:40.673Z,19.28
2022-09-02T06:49:11.986Z,19.30
2022-09-02T06:51:44.659Z,19.33
2022-09-02T06:54:16.977Z,19.34
2022-09-02T06:56:49.622Z,19.37
2022-09-02T06:59:22.099Z,19.41
2022-09-02T07:01:54.420Z,19.44
2022-09-02T07:04:43.885Z,19.47
2022-09-02T07:07:16.420Z,19.48
2022-09-02T07:09:53.587Z,19.52
2022-09-02T07:12:22.626Z,19.54
2022-09-02T07:14:58.674Z,19.58
2022-09-02T07:17:35.242Z,19.61
2022-09-02T07:20:08.471Z,19.64
2022-09-02T07:22:59.307Z,19.68
2022-09-02T07:25:31.640Z,19.72
2022-09-02T07:28:00.705Z,19.78
2022-09-02T07:30:32.799Z,19.84
2022-09-02T07:33:10.653Z,19.92
2022-09-02T07:35:42.359Z,20.00
2022-09-02T07:38:12.015Z,20.10
2022-09-02T07:40:42.543Z,20.20
2022-09-02T07:43:12.723Z,20.29
2022-09-02T07:45:44.262Z,20.37
2022-09-02T07:48:15.127Z,20.45
2022-09-02T07:50:45.271Z,20.54
2022-09-02T07:53:16.723Z,20.61
2022-09-02T07:55:47.214Z,20.67
2022-09-02T07:58:17.639Z,20.74
2022-09-02T08:00:46.139Z,20.78
2022-09-02T08:03:16.352Z,20.83
2022-09-02T08:05:51.670Z,20.87
2022-09-02T08:08:21.204Z,20.89
2022-09-02T08:10:50.759Z,20.90
2022-09-02T08:13:19.331Z,20.89
2022-09-02T08:15:50.712Z,20.87
2022-09-02T08:18:22.048Z,20.87
2022-09-02T08:20:52.444Z,20.88
2022-09-02T08:23:36.096Z,20.89
2022-09-02T08:26:06.535Z,20.93
2022-09-02T08:28:35.110Z,20.99
2022-09-02T08:31:07.323Z,21.04
2022-09-02T08:33:36.064Z,21.11
2022-09-02T08:36:11.049Z,21.18
2022-09-02T08:38:39.451Z,21.26
2022-09-02T08:41:18.859Z,21.33
2022-09-02T08:43:47.680Z,21.39
2022-09-02T08:46:18.441Z,21.44
2022-09-02T08:48:51.026Z,21.49
2022-09-02T08:51:33.791Z,21.56
2022-09-02T08:54:12.498Z,21.66
2022-09-02T08:56:41.635Z,21.73
2022-09-02T08:59:12.970Z,21.79
2022-09-02T09:01:48.360Z,21.83
2022-09-02T09:04:35.937Z,21.86
2022-09-02T09:07:28.433Z,21.90
2022-09-02T09:10:07.010Z,21.93
2022-09-02T09:12:52.313Z,21.98
2022-09-02T09:15:26.886Z,22.05
2022-09-02T09:17:59.398Z,22.10
2022-09-02T09:20:30.107Z,22.15
2022-09-02T09:23:01.518Z,22.22
2022-09-02T09:25:30.833Z,22.30
2022-09-02T09:28:00.907Z,22.35
2022-09-02T09:30:30.140Z,22.42
2022-09-02T09:33:00.466Z,22.50
2022-09-02T09:35:47.544Z,22.57
2022-09-02T09:38:17.472Z,22.67
2022-09-02T09:40:46.102Z,22.76
2022-09-02T09:43:16.317Z,22.84
2022-09-02T09:45:47.231Z,22.90
2022-09-02T09:48:27.549Z,22.98
2022-09-02T09:51:16.955Z,23.07
2022-09-02T09:53:47.431Z,23.10
2022-09-02T09:56:28.413Z,23.13
2022-09-02T09:58:56.964Z,23.17
2022-09-02T10:01:29.393Z,23.24
2022-09-02T10:04:00.806Z,23.31
2022-09-02T10:06:40.293Z,23.36
2022-09-02T10:09:35.122Z,23.42
2022-09-02T10:12:06.036Z,23.46
2022-09-02T10:14:37.146Z,23.48
2022-09-02T10:17:24.605Z,23.51
2022-09-02T10:19:57.819Z,23.50
2022-09-02T10:22:58.562Z,23.51
2022-09-02T10:25:34.974Z,23.56
2022-09-02T10:28:15.181Z,23.59
2022-09-02T10:30:56.364Z,23.69
2022-09-02T10:33:35.579Z,23.80
2022-09-02T10:36:18.139Z,23.86
2022-09-02T10:38:50.576Z,23.92
2022-09-02T10:44:31.083Z,23.98
2022-09-02T10:47:04.129Z,24.05
2022-09-02T10:49:54.126Z,24.16
2022-09-02T10:52:44.412Z,24.35
2022-09-02T10:55:21.846Z,24.50
2022-09-02T10:57:56.605Z,24.68
2022-09-02T11:00:29.392Z,24.84
2022-09-02T11:03:08.811Z,25.00
2022-09-02T11:05:44.846Z,25.13
2022-09-02T11:08:17.883Z,25.18
2022-09-02T11:10:55.734Z,25.25
2022-09-02T11:13:34.710Z,25.32
2022-09-02T11:16:06.941Z,25.33
2022-09-02T11:18:43.706Z,25.30
2022-09-02T11:21:35.623Z,25.25
2022-09-02T11:24:10.819Z,25.20
2022-09-02T11:26:43.114Z,25.17
2022-09-02T11:29:16.392Z,25.16
2022-09-02T11:31:47.950Z,25.23
2022-09-02T11:34:22.846Z,25.35
2022-09-02T11:36:51.200Z,25.48
2022-09-02T11:39:36.406Z,25.63
2022-09-02T11:42:27.099Z,25.81
2022-09-02T11:45:19.901Z,25.96
2022-09-02T11:48:07.597Z,26.07
2022-09-02T11:51:04.982Z,26.15
2022-09-02T11:53:39.535Z,26.16
2022-09-02T11:56:16.136Z,26.15
2022-09-02T11:58:46.562Z,26.13
2022-09-02T12:01:28.948Z,26.11
2022-09-02T12:07:32.701Z,26.24
2022-09-02T12:10:06.093Z,26.30
2022-09-02T12:13:08.263Z,26.28
2022-09-02T12:15:41.659Z,26.25
2022-09-02T12:18:31.904Z,26.22
2022-09-02T12:21:16.501Z,26.27
2022-09-02T12:24:21.201Z,26.31
2022-09-02T12:27:20.077Z,26.32
2022-09-02T12:29:52.103Z,26.31
2022-09-02T12:33:05.033Z,26.33
2022-09-02T12:35:51.446Z,26.45
2022-09-02T12:38:34.140Z,26.62
2022-09-02T12:41:23.088Z,26.81
2022-09-02T12:44:04.705Z,26.99
2022-09-02T12:46:54.568Z,27.10
2022-09-02T12:49:34.774Z,27.29
2022-09-02T12:52:11.113Z,27.43
2022-09-02T12:54:48.807Z,27.54
2022-09-02T12:57:38.260Z,27.69
2022-09-02T13:00:07.565Z,27.89
2022-09-02T13:02:45.731Z,28.05
2022-09-02T13:05:24.796Z,28.21
2022-09-02T13:08:14.818Z,28.34
2022-09-02T13:11:00.547Z,28.48
2022-09-02T13:13:55.740Z,28.67
2022-09-02T13:16:38.755Z,28.85
2022-09-02T13:19:40.382Z,29.02
2022-09-02T13:22:37.646Z,29.16
2022-09-02T13:25:55.913Z,29.31
2022-09-02T13:29:05.549Z,29.35
2022-09-02T13:31:33.966Z,29.31
2022-09-02T13:34:05.606Z,29.31
2022-09-02T13:36:37.398Z,29.27
2022-09-02T13:39:14.810Z,29.22
2022-09-02T13:41:44.839Z,29.22
2022-09-02T13:44:14.566Z,29.28
2022-09-02T13:46:48.629Z,29.39
2022-09-02T13:49:22.912Z,29.44
2022-09-02T13:51:54.313Z,29.38
2022-09-02T13:54:33.202Z,29.25
2022-09-02T13:57:05.939Z,29.25
2022-09-02T13:59:36.493Z,29.31
2022-09-02T14:02:21.009Z,29.36
2022-09-02T14:04:52.284Z,29.44
2022-09-02T14:07:27.471Z,29.56
2022-09-02T14:10:00.294Z,29.68
2022-09-02T14:12:33.703Z,29.83
2022-09-02T14:15:03.147Z,29.80
2022-09-02T14:17:32.295Z,29.84
2022-09-02T14:20:23.959Z,29.97
2022-09-02T14:22:56.564Z,30.07
2022-09-02T14:25:27.638Z,30.09
2022-09-02T14:28:00.473Z,30.17
2022-09-02T14:30:37.379Z,30.23
2022-09-02T14:33:38.513Z,30.36
2022-09-02T14:36:30.540Z,30.34
2022-09-02T14:39:12.601Z,30.22
2022-09-02T14:41:47.857Z,30.17
2022-09-02T14:44:26.150Z,30.21
2022-09-02T14:46:58.722Z,30.28
2022-09-02T14:49:30.738Z,30.36
2022-09-02T14:52:03.057Z,30.43
2022-09-02T14:54:37.941Z,30.50
2022-09-02T14:57:20.333Z,30.50
2022-09-02T14:59:53.564Z,30.49
2022-09-02T15:02:30.878Z,30.46
2022-09-02T15:05:03.134Z,30.45
2022-09-02T15:07:31.891Z,30.29
2022-09-02T15:10:00.739Z,30.21
2022-09-02T15:12:32.851Z,30.25
2022-09-02T15:15:03.029Z,30.30
2022-09-02T15:17:33.886Z,30.39
2022-09-02T15:20:02.491Z,30.39
2022-09-02T15:22:31.062Z,30.43
2022-09-02T15:25:00.911Z,30.48
2022-09-02T15:27:29.352Z,30.52
2022-09-02T15:29:57.926Z,30.56
2022-09-02T15:32:29.060Z,30.68
2022-09-02T15:34:57.764Z,30.80
2022-09-02T15:37:27.632Z,30.87
2022-09-02T15:39:56.099Z,31.00
2022-09-02T15:42:27.710Z,31.09
2022-09-02T15:44:55.968Z,31.17
2022-09-02T15:47:35.134Z,31.20
2022-09-02T15:50:05.541Z,31.20
2022-09-02T15:52:34.802Z,31.23
2022-09-02T15:55:03.553Z,31.28
2022-09-02T15:57:31.904Z,31.35
2022-09-02T16:00:00.411Z,31.42
2022-09-02T16:02:28.821Z,31.44
2022-09-02T16:04:57.558Z,31.42
2022-09-02T16:07:27.845Z,31.43
2022-09-02T16:09:58.955Z,31.46
2022-09-02T16:12:31.540Z,31.44
2022-09-02T16:14:59.981Z,31.48
2022-09-02T16:17:28.374Z,31.54
2022-09-02T16:19:56.693Z,31.53
2022-09-02T16:22:25.025Z,31.54
2022-09-02T16:24:54.709Z,31.55
2022-09-02T16:27:36.947Z,31.51
2022-09-02T16:30:05.909Z,31.42
2022-09-02T16:32:34.203Z,31.34
2022-09-02T16:35:02.541Z,31.28
2022-09-02T16:37:30.865Z,31.17
2022-09-02T16:40:01.147Z,31.09
2022-09-02T16:42:30.783Z,31.03
2022-09-02T16:45:00.452Z,30.94
2022-09-02T16:47:28.794Z,30.87
2022-09-02T16:49:57.291Z,30.76
2022-09-02T16:52:25.671Z,30.66
2022-09-02T16:54:54.003Z,30.56
2022-09-02T16:57:23.686Z,30.41
2022-09-02T16:59:52.961Z,30.23
2022-09-02T17:02:21.317Z,30.07
2022-09-02T17:04:49.851Z,29.89
2022-09-02T17:07:18.211Z,29.70
2022-09-02T17:09:46.465Z,29.48
2022-09-02T17:12:14.826Z,29.28
2022-09-02T17:14:45.710Z,29.08
2022-09-02T17:17:17.037Z,28.88
2022-09-02T17:19:45.391Z,28.68
2022-09-02T17:22:13.722Z,28.51
2022-09-02T17:24:42.189Z,28.34
2022-09-02T17:27:10.780Z,28.20
2022-09-02T17:29:55.213Z,28.05
2022-09-02T17:32:26.043Z,27.88
2022-09-02T17:34:54.402Z,27.71
2022-09-02T17:37:22.773Z,27.58
2022-09-02T17:39:51.296Z,27.46
2022-09-02T17:42:19.966Z,27.34
2022-09-02T17:44:48.728Z,27.21
2022-09-02T17:47:19.968Z,27.10
2022-09-02T17:49:50.339Z,27.00
2022-09-02T17:52:20.504Z,26.89
2022-09-02T17:54:50.399Z,26.77
2022-09-02T17:57:42.635Z,26.64
2022-09-02T18:00:14.010Z,26.53
2022-09-02T18:03:13.302Z,26.40
2022-09-02T18:05:55.183Z,26.28
2022-09-02T18:08:34.753Z,26.19
2022-09-02T18:11:06.680Z,26.13
2022-09-02T18:13:54.702Z,26.05
2022-09-02T18:16:36.885Z,25.95
2022-09-02T18:19:16.298Z,25.81
2022-09-02T18:22:06.495Z,25.69
2022-09-02T18:24:52.369Z,25.53
2022-09-02T18:27:28.157Z,25.44
2022-09-02T18:30:06.346Z,25.36
2022-09-02T18:33:03.322Z,25.27
2022-09-02T18:35:40.861Z,25.16
2022-09-02T18:38:20.093Z,25.07
2022-09-02T18:40:54.514Z,24.98
2022-09-02T18:43:33.919Z,24.87
2022-09-02T18:46:04.107Z,24.74
2022-09-02T18:48:35.461Z,24.66
2022-09-02T18:51:09.920Z,24.57
2022-09-02T18:53:43.582Z,24.47
2022-09-02T18:56:13.693Z,24.39
2022-09-02T18:58:47.584Z,24.32
2022-09-02T19:01:21.879Z,24.25
2022-09-02T19:03:50.070Z,24.16
2022-09-02T19:06:21.398Z,24.09
2022-09-02T19:08:57.216Z,23.98
2022-09-02T19:11:27.244Z,23.91
2022-09-02T19:13:57.685Z,23.83
2022-09-02T19:16:27.704Z,23.76
2022-09-02T19:18:56.242Z,23.66
2022-09-02T19:21:31.923Z,23.59
2022-09-02T19:24:05.200Z,23.47
2022-09-02T19:26:34.363Z,23.40
2022-09-02T19:29:04.174Z,23.33
2022-09-02T19:31:32.948Z,23.23
2022-09-02T19:34:04.368Z,23.15
2022-09-02T19:36:33.900Z,23.07
2022-09-02T19:39:03.658Z,23.00
2022-09-02T19:41:32.041Z,22.93
2022-09-02T19:44:00.770Z,22.85
2022-09-02T19:47:11.909Z,22.77
2022-09-02T19:49:17.657Z,22.70
2022-09-02T19:51:46.393Z,22.64
2022-09-02T19:54:18.344Z,22.57
2022-09-02T19:56:46.714Z,22.51
2022-09-02T19:59:15.047Z,22.44
2022-09-02T20:01:43.401Z,22.36
2022-09-02T20:04:12.260Z,22.27
2022-09-02T20:06:40.673Z,22.20
2022-09-02T20:09:09.050Z,22.10
2022-09-02T20:11:41.073Z,22.05
2022-09-02T20:14:09.607Z,21.99
2022-09-02T20:16:38.053Z,21.91
2022-09-02T20:19:06.676Z,21.85
2022-09-02T20:21:43.075Z,21.79
2022-09-02T20:24:13.528Z,21.72
2022-09-02T20:26:50.927Z,21.68
2022-09-02T20:29:32.467Z,21.61
2022-09-02T20:32:08.219Z,21.57
2022-09-02T20:34:50.670Z,21.49
2022-09-02T20:37:32.918Z,21.41
2022-09-02T20:40:32.305Z,21.33
2022-09-02T20:43:17.989Z,21.28
2022-09-02T20:45:55.838Z,21.23
2022-09-02T20:48:40.516Z,21.17
2022-09-02T20:51:12.387Z,21.14
2022-09-02T20:54:01.254Z,21.09
2022-09-02T20:56:35.767Z,21.04
2022-09-02T20:59:10.582Z,20.99
2022-09-02T21:01:42.829Z,20.93
2022-09-02T21:04:28.249Z,20.89
2022-09-02T21:07:02.356Z,20.84
2022-09-02T21:09:40.775Z,20.80
2022-09-02T21:12:24.417Z,20.75
2022-09-02T21:15:04.718Z,20.71
2022-09-02T21:17:44.265Z,20.66
2022-09-02T21:20:21.408Z,20.62
2022-09-02T21:22:54.773Z,20.58
2022-09-02T21:25:29.094Z,20.52
2022-09-02T21:28:04.256Z,20.48
2022-09-02T21:30:40.504Z,20.46
2022-09-02T21:33:12.567Z,20.40
2022-09-02T21:35:43.583Z,20.37
2022-09-02T21:38:15.953Z,20.31
2022-09-02T21:41:04.381Z,20.26
2022-09-02T21:43:47.063Z,20.22
2022-09-02T21:46:28.064Z,20.17
2022-09-02T21:49:02.846Z,20.13
2022-09-02T21:51:37.922Z,20.08
2022-09-02T21:54:26.686Z,20.01
2022-09-02T21:57:14.925Z,19.95
2022-09-02T21:59:58.226Z,19.91
2022-09-02T22:02:36.850Z,19.88
2022-09-02T22:05:16.382Z,19.86
2022-09-02T22:07:50.394Z,19.82
2022-09-02T22:10:28.667Z,19.80
2022-09-02T22:13:03.299Z,19.77
2022-09-02T22:15:51.279Z,19.74
2022-09-02T22:18:31.137Z,19.74
2022-09-02T22:21:03.583Z,19.73
2022-09-02T22:23:34.545Z,19.73
2022-09-02T22:26:15.469Z,19.73
2022-09-02T22:28:48.662Z,19.72
2022-09-02T22:31:25.923Z,19.72
2022-09-02T22:33:58.627Z,19.71
2022-09-02T22:36:38.000Z,19.69
2022-09-02T22:39:07.747Z,19.68
2022-09-02T22:41:50.801Z,19.68
2022-09-02T22:44:24.379Z,19.65
2022-09-02T22:47:15.090Z,19.63
2022-09-02T22:50:06.713Z,19.62
2022-09-02T22:52:49.165Z,19.59
2022-09-02T22:55:31.620Z,19.58
2022-09-02T22:58:11.003Z,19.58
2022-09-02T23:00:47.809Z,19.56
2022-09-02T23:03:21.218Z,19.55
2022-09-02T23:06:01.121Z,19.53
2022-09-02T23:08:30.719Z,19.51
2022-09-02T23:11:06.703Z,19.50
2022-09-02T23:13:48.534Z,19.49
2022-09-02T23:16:23.508Z,19.47
2022-09-02T23:19:04.595Z,19.47
2022-09-02T23:21:42.170Z,19.46
2022-09-02T23:24:19.751Z,19.44
2022-09-02T23:26:58.217Z,19.43
2022-09-02T23:29:26.957Z,19.42
2022-09-02T23:32:16.827Z,19.42
2022-09-02T23:35:03.216Z,19.40
2022-09-02T23:37:46.300Z,19.39
2022-09-02T23:40:23.813Z,19.37
2022-09-02T23:42:52.115Z,19.36
2022-09-02T23:45:23.218Z,19.36
2022-09-02T23:48:12.506Z,19.34
2022-09-02T23:50:57.707Z,19.33
2022-09-02T23:53:37.082Z,19.30
2022-09-02T23:56:15.863Z,19.30
2022-09-02T23:59:00.991Z,19.30
